createdAt,value
2023-07-22T00:00:15.117Z,76.56
2023-07-22T00:01:01.166Z,76.46
2023-07-22T00:01:12.110Z,76.56
2023-07-22T00:01:42.081Z,76.36
2023-07-22T00:02:12.071Z,76.46
2023-07-22T00:02:42.112Z,76.36
2023-07-22T00:03:12.118Z,76.56
2023-07-22T00:03:42.121Z,76.56
2023-07-22T00:04:12.087Z,76.56
2023-07-22T00:04:42.077Z,76.36
2023-07-22T00:05:12.058Z,76.36
2023-07-22T00:05:42.457Z,76.36
2023-07-22T00:06:15.076Z,76.36
2023-07-22T00:07:00.397Z,76.26
2023-07-22T00:07:12.018Z,76.26
2023-07-22T00:07:42.016Z,76.36
2023-07-22T00:08:12.102Z,76.46
2023-07-22T00:08:42.036Z,76.46
2023-07-22T00:09:12.016Z,76.46
2023-07-22T00:09:42.097Z,76.56
2023-07-22T00:10:12.018Z,76.67
2023-07-22T00:10:42.018Z,76.56
2023-07-22T00:11:11.982Z,76.56
2023-07-22T00:11:41.976Z,76.46
2023-07-22T00:12:15.587Z,76.46
2023-07-22T00:13:00.991Z,76.46
2023-07-22T00:13:11.982Z,76.46
2023-07-22T00:13:42.013Z,76.26
2023-07-22T00:14:12.071Z,76.36
2023-07-22T00:14:41.962Z,76.26
2023-07-22T00:15:11.921Z,76.46
2023-07-22T00:15:41.929Z,76.46
2023-07-22T00:16:11.912Z,76.46
2023-07-22T00:16:41.929Z,76.46
2023-07-22T00:17:11.993Z,76.56
2023-07-22T00:17:42.017Z,76.77
2023-07-22T00:18:14.921Z,76.56
2023-07-22T00:19:01.669Z,76.77
2023-07-22T00:19:11.876Z,76.67
2023-07-22T00:19:41.875Z,76.67
2023-07-22T00:20:11.892Z,76.77
2023-07-22T00:20:41.880Z,76.87
2023-07-22T00:21:11.897Z,76.97
2023-07-22T00:21:41.920Z,76.97
2023-07-22T00:22:11.863Z,77.17
2023-07-22T00:22:41.863Z,76.97
2023-07-22T00:23:11.860Z,77.17
2023-07-22T00:23:41.867Z,77.07
2023-07-22T00:24:14.876Z,77.28
2023-07-22T00:25:00.475Z,77.07
2023-07-22T00:25:11.893Z,77.17
2023-07-22T00:25:41.812Z,76.97
2023-07-22T00:26:11.846Z,76.77
2023-07-22T00:26:41.851Z,76.67
2023-07-22T00:27:11.794Z,77.07
2023-07-22T00:27:41.802Z,77.17
2023-07-22T00:28:11.792Z,76.97
2023-07-22T00:28:41.795Z,76.77
2023-07-22T00:29:11.818Z,77.17
2023-07-22T00:29:41.794Z,77.17
2023-07-22T00:30:14.784Z,76.97
2023-07-22T00:31:00.463Z,76.77
2023-07-22T00:31:11.825Z,76.67
2023-07-22T00:31:41.748Z,76.56
2023-07-22T00:32:11.776Z,76.67
2023-07-22T00:32:41.821Z,76.87
2023-07-22T00:33:11.819Z,76.87
2023-07-22T00:33:41.780Z,76.97
2023-07-22T00:34:11.728Z,76.87
2023-07-22T00:34:41.750Z,76.67
2023-07-22T00:35:11.717Z,76.87
2023-07-22T00:35:41.753Z,76.67
2023-07-22T00:36:14.753Z,76.87
2023-07-22T00:36:59.984Z,76.87
2023-07-22T00:37:11.699Z,76.97
2023-07-22T00:37:41.687Z,76.70
2023-07-22T00:38:11.686Z,76.70
2023-07-22T00:38:41.822Z,76.77
2023-07-22T00:39:11.696Z,76.97
2023-07-22T00:39:41.669Z,76.67
2023-07-22T00:40:11.667Z,76.67
2023-07-22T00:40:41.671Z,76.56
2023-07-22T00:41:11.663Z,76.90
2023-07-22T00:41:41.664Z,76.77
2023-07-22T00:42:15.608Z,76.87
2023-07-22T00:42:59.756Z,76.80
2023-07-22T00:43:11.680Z,76.77
2023-07-22T00:43:41.638Z,76.77
2023-07-22T00:44:11.652Z,76.77
2023-07-22T00:45:14.146Z,76.67
2023-07-22T00:45:22.299Z,76.77
2023-07-22T00:45:49.653Z,76.56
2023-07-22T00:46:19.677Z,76.36
2023-07-22T00:46:50.606Z,76.56
2023-07-22T00:47:19.614Z,76.36
2023-07-22T00:47:52.653Z,76.36
2023-07-22T00:48:37.733Z,76.67
2023-07-22T00:48:49.592Z,76.26
2023-07-22T00:49:19.563Z,76.26
2023-07-22T00:49:49.601Z,76.26
2023-07-22T00:50:19.572Z,76.36
2023-07-22T00:50:49.572Z,76.77
2023-07-22T00:51:19.572Z,76.56
2023-07-22T00:51:50.964Z,76.46
2023-07-22T00:52:19.562Z,76.16
2023-07-22T00:52:49.534Z,76.06
2023-07-22T00:53:19.632Z,75.96
2023-07-22T00:53:52.535Z,75.96
2023-07-22T00:54:37.683Z,76.16
2023-07-22T00:54:49.536Z,76.46
2023-07-22T00:55:19.529Z,76.26
2023-07-22T00:55:49.537Z,76.26
2023-07-22T00:56:19.656Z,76.06
2023-07-22T00:56:50.189Z,75.96
2023-07-22T00:57:19.498Z,75.85
2023-07-22T00:57:49.494Z,75.96
2023-07-22T00:58:19.498Z,76.06
2023-07-22T00:58:49.488Z,75.89
2023-07-22T00:59:19.481Z,75.99
2023-07-22T00:59:52.495Z,76.50
2023-07-22T01:00:37.595Z,76.40
2023-07-22T01:00:49.538Z,76.60
2023-07-22T01:01:19.490Z,76.60
2023-07-22T01:01:49.465Z,76.40
2023-07-22T01:02:19.460Z,76.40
2023-07-22T01:02:49.442Z,76.50
2023-07-22T01:03:19.449Z,76.50
2023-07-22T01:03:49.445Z,76.29
2023-07-22T01:04:19.435Z,76.29
2023-07-22T01:04:49.418Z,76.29
2023-07-22T01:05:19.472Z,76.29
2023-07-22T01:05:52.420Z,76.29
2023-07-22T01:06:37.505Z,76.50
2023-07-22T01:06:49.388Z,76.70
2023-07-22T01:07:19.409Z,76.90
2023-07-22T01:07:49.379Z,76.90
2023-07-22T01:08:19.460Z,76.80
2023-07-22T01:08:49.373Z,76.80
2023-07-22T01:09:19.394Z,77.01
2023-07-22T01:09:49.366Z,77.01
2023-07-22T01:10:19.395Z,77.01
2023-07-22T01:10:49.334Z,77.01
2023-07-22T01:11:19.447Z,77.11
2023-07-22T01:11:52.363Z,77.21
2023-07-22T01:12:37.454Z,77.25
2023-07-22T01:12:49.334Z,77.34
2023-07-22T01:13:19.369Z,77.25
2023-07-22T01:13:49.314Z,77.25
2023-07-22T01:14:19.356Z,77.55
2023-07-22T01:14:49.324Z,77.75
2023-07-22T01:15:19.376Z,77.86
2023-07-22T01:15:49.326Z,77.86
2023-07-22T01:16:19.387Z,77.75
2023-07-22T01:16:49.321Z,77.86
2023-07-22T01:17:19.291Z,77.65
2023-07-22T01:17:52.449Z,77.75
2023-07-22T01:18:37.363Z,77.86
2023-07-22T01:18:49.242Z,77.75
2023-07-22T01:19:19.237Z,77.65
2023-07-22T01:19:49.304Z,77.75
2023-07-22T01:20:19.247Z,77.86
2023-07-22T01:20:49.260Z,77.75
2023-07-22T01:21:19.238Z,77.75
2023-07-22T01:21:49.231Z,77.75
2023-07-22T01:22:19.248Z,77.86
2023-07-22T01:22:49.233Z,77.86
2023-07-22T01:23:19.219Z,77.75
2023-07-22T01:23:52.230Z,78.06
2023-07-22T01:24:37.364Z,77.95
2023-07-22T01:24:49.304Z,78.06
2023-07-22T01:25:19.183Z,78.06
2023-07-22T01:25:49.185Z,78.26
2023-07-22T01:26:19.165Z,78.30
2023-07-22T01:26:49.224Z,78.50
2023-07-22T01:27:19.188Z,78.40
2023-07-22T01:27:49.145Z,78.50
2023-07-22T01:28:19.137Z,78.60
2023-07-22T01:28:49.147Z,78.91
2023-07-22T01:29:19.150Z,78.91
2023-07-22T01:29:52.152Z,79.00
2023-07-22T01:30:37.293Z,79.00
2023-07-22T01:30:49.208Z,79.11
2023-07-22T01:31:19.167Z,79.00
2023-07-22T01:31:49.127Z,79.21
2023-07-22T01:32:19.175Z,79.21
2023-07-22T01:32:49.165Z,78.91
2023-07-22T01:33:19.101Z,78.80
2023-07-22T01:33:49.080Z,78.80
2023-07-22T01:34:19.094Z,78.70
2023-07-22T01:34:49.099Z,78.70
2023-07-22T01:35:19.113Z,79.00
2023-07-22T01:35:52.096Z,78.80
2023-07-22T01:36:37.218Z,78.70
2023-07-22T01:36:49.047Z,78.70
2023-07-22T01:37:19.046Z,78.80
2023-07-22T01:37:49.040Z,78.60
2023-07-22T01:38:19.118Z,78.60
2023-07-22T01:38:49.031Z,78.70
2023-07-22T01:39:19.061Z,78.70
2023-07-22T01:39:49.033Z,78.80
2023-07-22T01:40:19.021Z,79.11
2023-07-22T01:40:49.069Z,79.11
2023-07-22T01:41:19.014Z,79.11
2023-07-22T01:41:52.038Z,79.11
2023-07-22T01:42:37.131Z,79.00
2023-07-22T01:42:48.982Z,78.91
2023-07-22T01:43:18.997Z,78.91
2023-07-22T01:43:48.984Z,78.80
2023-07-22T01:44:19.020Z,78.70
2023-07-22T01:44:49.110Z,78.80
2023-07-22T01:45:19.001Z,78.70
2023-07-22T01:45:48.960Z,78.60
2023-07-22T01:46:18.990Z,78.60
2023-07-22T01:46:49.076Z,78.60
2023-07-22T01:47:18.929Z,78.60
2023-07-22T01:47:52.042Z,78.50
2023-07-22T01:48:37.063Z,78.50
2023-07-22T01:48:48.992Z,78.50
2023-07-22T01:49:18.921Z,78.80
2023-07-22T01:49:48.927Z,78.70
2023-07-22T01:50:18.979Z,78.80
2023-07-22T01:50:48.921Z,78.70
2023-07-22T01:51:18.895Z,78.80
2023-07-22T01:51:48.911Z,78.91
2023-07-22T01:52:18.898Z,79.00
2023-07-22T01:52:48.894Z,78.94
2023-07-22T01:53:18.946Z,79.14
2023-07-22T01:53:51.964Z,79.25
2023-07-22T01:54:36.986Z,79.14
2023-07-22T01:54:48.861Z,79.14
2023-07-22T01:55:18.883Z,79.14
2023-07-22T01:55:48.861Z,79.04
2023-07-22T01:56:18.855Z,79.25
2023-07-22T01:56:48.841Z,79.35
2023-07-22T01:57:18.842Z,79.35
2023-07-22T01:57:48.841Z,79.35
2023-07-22T01:58:18.863Z,79.35
2023-07-22T01:58:48.842Z,79.45
2023-07-22T01:59:18.831Z,79.45
2023-07-22T01:59:51.840Z,79.45
2023-07-22T02:00:36.951Z,79.45
2023-07-22T02:00:48.790Z,79.45
2023-07-22T02:01:18.894Z,79.45
2023-07-22T02:01:48.875Z,79.55
2023-07-22T02:02:18.784Z,79.45
2023-07-22T02:02:48.939Z,79.35
2023-07-22T02:03:18.984Z,79.45
2023-07-22T02:03:48.911Z,79.35
2023-07-22T02:04:18.798Z,79.25
2023-07-22T02:04:48.823Z,79.45
2023-07-22T02:05:18.762Z,79.35
2023-07-22T02:05:51.783Z,79.35
2023-07-22T02:06:36.894Z,79.45
2023-07-22T02:06:48.735Z,79.45
2023-07-22T02:07:18.728Z,79.25
2023-07-22T02:07:48.716Z,79.25
2023-07-22T02:08:18.741Z,79.14
2023-07-22T02:08:48.735Z,79.65
2023-07-22T02:09:18.726Z,79.35
2023-07-22T02:09:48.692Z,79.25
2023-07-22T02:10:18.744Z,79.35
2023-07-22T02:10:48.705Z,79.25
2023-07-22T02:11:18.744Z,79.35
2023-07-22T02:11:51.696Z,79.35
2023-07-22T02:12:36.783Z,79.45
2023-07-22T02:12:48.666Z,79.25
2023-07-22T02:13:18.738Z,79.25
2023-07-22T02:13:48.666Z,79.14
2023-07-22T02:14:18.660Z,79.14
2023-07-22T02:14:48.646Z,79.25
2023-07-22T02:15:18.680Z,79.14
2023-07-22T02:15:48.679Z,78.94
2023-07-22T02:16:18.682Z,79.25
2023-07-22T02:16:48.690Z,79.35
2023-07-22T02:17:18.647Z,79.45
2023-07-22T02:17:51.701Z,79.35
2023-07-22T02:18:36.785Z,79.25
2023-07-22T02:18:48.668Z,79.14
2023-07-22T02:19:18.642Z,79.14
2023-07-22T02:19:48.599Z,79.25
2023-07-22T02:20:18.586Z,79.14
2023-07-22T02:20:48.587Z,79.14
2023-07-22T02:21:18.593Z,79.04
2023-07-22T02:21:48.587Z,79.35
2023-07-22T02:22:18.598Z,79.25
2023-07-22T02:22:48.573Z,79.04
2023-07-22T02:23:18.648Z,78.84
2023-07-22T02:23:51.702Z,78.74
2023-07-22T02:24:36.745Z,78.84
2023-07-22T02:24:48.663Z,78.64
2023-07-22T02:25:18.564Z,78.74
2023-07-22T02:25:48.591Z,78.44
2023-07-22T02:26:18.521Z,78.33
2023-07-22T02:26:48.516Z,78.23
2023-07-22T02:27:18.548Z,78.30
2023-07-22T02:27:48.551Z,78.09
2023-07-22T02:28:18.534Z,78.09
2023-07-22T02:28:48.558Z,78.09
2023-07-22T02:29:18.498Z,78.09
2023-07-22T02:29:51.503Z,78.09
2023-07-22T02:30:36.636Z,78.19
2023-07-22T02:30:48.488Z,77.99
2023-07-22T02:31:18.514Z,77.79
2023-07-22T02:31:48.570Z,77.69
2023-07-22T02:32:18.501Z,77.79
2023-07-22T02:32:48.481Z,77.79
2023-07-22T02:33:18.536Z,77.38
2023-07-22T02:33:48.465Z,77.14
2023-07-22T02:34:18.474Z,77.14
2023-07-22T02:34:48.440Z,77.34
2023-07-22T02:35:18.425Z,77.34
2023-07-22T02:35:51.453Z,77.14
2023-07-22T02:36:36.574Z,77.14
2023-07-22T02:36:48.449Z,77.14
2023-07-22T02:37:18.432Z,77.04
2023-07-22T02:37:48.435Z,76.94
2023-07-22T02:38:18.424Z,76.94
2023-07-22T02:38:48.397Z,77.14
2023-07-22T02:39:18.395Z,76.84
2023-07-22T02:39:48.369Z,77.14
2023-07-22T02:40:18.397Z,77.04
2023-07-22T02:40:48.402Z,77.25
2023-07-22T02:41:21.410Z,77.45
2023-07-22T02:42:06.538Z,77.55
2023-07-22T02:42:18.338Z,77.86
2023-07-22T02:42:48.345Z,77.34
2023-07-22T02:43:18.364Z,77.59
2023-07-22T02:43:48.332Z,77.59
2023-07-22T02:44:18.372Z,77.28
2023-07-22T02:44:48.330Z,77.69
2023-07-22T02:45:18.348Z,77.69
2023-07-22T02:45:48.398Z,77.69
2023-07-22T02:46:18.389Z,77.69
2023-07-22T02:46:48.264Z,77.69
2023-07-22T02:47:21.278Z,77.25
2023-07-22T02:48:06.374Z,77.04
2023-07-22T02:48:18.254Z,77.14
2023-07-22T02:48:48.241Z,77.04
2023-07-22T02:49:18.272Z,77.04
2023-07-22T02:49:48.219Z,77.04
2023-07-22T02:50:18.234Z,76.84
2023-07-22T02:50:48.290Z,76.84
2023-07-22T02:51:18.219Z,76.84
2023-07-22T02:51:48.273Z,76.74
2023-07-22T02:52:18.264Z,76.64
2023-07-22T02:52:48.203Z,76.64
2023-07-22T02:53:21.227Z,76.43
2023-07-22T02:54:06.333Z,76.33
2023-07-22T02:54:18.195Z,76.54
2023-07-22T02:54:48.178Z,76.43
2023-07-22T02:55:18.191Z,75.73
2023-07-22T02:55:48.177Z,75.32
2023-07-22T02:56:18.158Z,75.62
2023-07-22T02:56:48.149Z,75.73
2023-07-22T02:57:18.164Z,75.73
2023-07-22T02:57:48.168Z,75.62
2023-07-22T02:58:18.134Z,75.82
2023-07-22T02:58:48.134Z,75.52
2023-07-22T02:59:21.161Z,75.52
2023-07-22T03:00:06.268Z,75.52
2023-07-22T03:00:18.146Z,75.93
2023-07-22T03:00:48.140Z,75.93
2023-07-22T03:01:18.161Z,75.93
2023-07-22T03:01:48.149Z,75.93
2023-07-22T03:02:18.211Z,75.62
2023-07-22T03:02:48.141Z,75.73
2023-07-22T03:03:18.078Z,75.82
2023-07-22T03:03:48.116Z,75.62
2023-07-22T03:04:18.103Z,75.62
2023-07-22T03:04:48.109Z,75.56
2023-07-22T03:05:21.560Z,75.66
2023-07-22T03:06:06.193Z,75.66
2023-07-22T03:06:18.048Z,75.66
2023-07-22T03:06:48.043Z,75.56
2023-07-22T03:07:18.029Z,75.86
2023-07-22T03:07:48.048Z,75.96
2023-07-22T03:08:18.050Z,75.76
2023-07-22T03:08:48.025Z,75.76
2023-07-22T03:09:18.037Z,75.76
2023-07-22T03:09:48.027Z,75.86
2023-07-22T03:10:18.048Z,75.96
2023-07-22T03:10:47.985Z,76.27
2023-07-22T03:11:21.020Z,76.27
2023-07-22T03:12:06.144Z,76.37
2023-07-22T03:12:17.975Z,76.47
2023-07-22T03:12:47.958Z,76.17
2023-07-22T03:13:17.965Z,76.06
2023-07-22T03:13:47.966Z,76.27
2023-07-22T03:14:17.992Z,75.96
2023-07-22T03:14:47.978Z,75.96
2023-07-22T03:15:17.975Z,76.17
2023-07-22T03:15:47.968Z,76.17
2023-07-22T03:16:17.981Z,76.06
2023-07-22T03:16:47.980Z,76.06
2023-07-22T03:17:20.987Z,76.27
2023-07-22T03:18:06.139Z,76.06
2023-07-22T03:18:17.940Z,76.06
2023-07-22T03:18:47.952Z,76.17
2023-07-22T03:19:17.941Z,76.20
2023-07-22T03:19:50.096Z,76.10
2023-07-22T03:20:17.952Z,76.40
2023-07-22T03:20:47.908Z,76.61
2023-07-22T03:21:17.919Z,76.40
2023-07-22T03:21:47.914Z,76.40
2023-07-22T03:22:17.917Z,76.31
2023-07-22T03:22:47.881Z,76.20
2023-07-22T03:23:20.960Z,76.61
2023-07-22T03:24:05.995Z,76.40
2023-07-22T03:24:17.921Z,76.71
2023-07-22T03:24:47.860Z,76.31
2023-07-22T03:25:17.894Z,76.40
2023-07-22T03:25:47.845Z,76.31
2023-07-22T03:26:17.903Z,76.20
2023-07-22T03:26:47.824Z,76.10
2023-07-22T03:27:17.847Z,76.20
2023-07-22T03:27:47.818Z,76.06
2023-07-22T03:28:17.864Z,76.20
2023-07-22T03:28:47.805Z,76.17
2023-07-22T03:29:20.924Z,76.31
2023-07-22T03:30:05.907Z,76.17
2023-07-22T03:30:17.838Z,76.27
2023-07-22T03:30:47.816Z,76.27
2023-07-22T03:31:17.807Z,76.06
2023-07-22T03:31:47.868Z,76.40
2023-07-22T03:32:17.817Z,76.40
2023-07-22T03:32:47.899Z,76.40
2023-07-22T03:33:17.804Z,76.31
2023-07-22T03:33:47.779Z,76.20
2023-07-22T03:34:17.877Z,76.00
2023-07-22T03:34:47.763Z,75.70
2023-07-22T03:35:20.805Z,75.79
2023-07-22T03:36:05.835Z,75.79
2023-07-22T03:36:17.745Z,75.70
2023-07-22T03:36:47.717Z,75.70
2023-07-22T03:37:17.761Z,75.70
2023-07-22T03:37:47.716Z,75.79
2023-07-22T03:38:17.823Z,75.79
2023-07-22T03:38:47.740Z,75.90
2023-07-22T03:39:17.702Z,76.20
2023-07-22T03:39:47.712Z,76.40
2023-07-22T03:40:17.721Z,76.51
2023-07-22T03:40:47.728Z,76.71
2023-07-22T03:41:20.767Z,76.81
2023-07-22T03:42:05.839Z,76.71
2023-07-22T03:42:17.661Z,76.91
2023-07-22T03:42:47.685Z,76.61
2023-07-22T03:43:17.681Z,76.51
2023-07-22T03:43:47.631Z,76.40
2023-07-22T03:44:17.652Z,76.40
2023-07-22T03:44:47.653Z,76.40
2023-07-22T03:45:17.656Z,76.40
2023-07-22T03:45:47.649Z,76.51
2023-07-22T03:46:17.643Z,76.31
2023-07-22T03:46:47.670Z,76.20
2023-07-22T03:47:20.669Z,76.40
2023-07-22T03:48:05.738Z,76.20
2023-07-22T03:48:17.597Z,76.40
2023-07-22T03:48:47.573Z,76.31
2023-07-22T03:49:17.576Z,76.31
2023-07-22T03:49:47.597Z,76.20
2023-07-22T03:50:17.587Z,76.31
2023-07-22T03:50:47.612Z,76.20
2023-07-22T03:51:20.677Z,76.10
2023-07-22T03:51:47.569Z,76.00
2023-07-22T03:52:17.647Z,76.40
2023-07-22T03:52:47.550Z,76.10
2023-07-22T03:53:20.572Z,76.00
2023-07-22T03:54:05.672Z,75.90
2023-07-22T03:54:17.529Z,75.90
2023-07-22T03:54:47.522Z,75.79
2023-07-22T03:55:17.512Z,76.00
2023-07-22T03:55:47.598Z,76.00
2023-07-22T03:56:17.529Z,75.79
2023-07-22T03:56:47.620Z,75.70
2023-07-22T03:57:17.524Z,75.70
2023-07-22T03:57:47.515Z,75.56
2023-07-22T03:58:17.512Z,75.56
2023-07-22T03:58:47.588Z,75.35
2023-07-22T03:59:20.529Z,75.25
2023-07-22T04:00:05.582Z,75.15
2023-07-22T04:00:17.539Z,75.25
2023-07-22T04:00:47.494Z,75.25
2023-07-22T04:01:17.475Z,75.25
2023-07-22T04:01:47.450Z,75.35
2023-07-22T04:02:17.466Z,75.25
2023-07-22T04:02:47.473Z,75.25
2023-07-22T04:03:17.577Z,75.05
2023-07-22T04:03:47.491Z,75.05
2023-07-22T04:04:17.445Z,75.35
2023-07-22T04:04:47.419Z,75.15
2023-07-22T04:05:20.477Z,74.85
2023-07-22T04:06:05.588Z,75.15
2023-07-22T04:06:17.407Z,74.95
2023-07-22T04:06:47.399Z,75.35
2023-07-22T04:07:17.386Z,75.15
2023-07-22T04:07:47.388Z,74.71
2023-07-22T04:08:17.390Z,75.01
2023-07-22T04:08:47.530Z,74.91
2023-07-22T04:09:17.434Z,74.51
2023-07-22T04:09:47.463Z,74.41
2023-07-22T04:10:17.401Z,74.41
2023-07-22T04:10:47.362Z,74.21
2023-07-22T04:11:20.371Z,74.30
2023-07-22T04:12:05.461Z,74.41
2023-07-22T04:12:17.337Z,74.21
2023-07-22T04:12:47.343Z,74.10
2023-07-22T04:13:17.342Z,74.41
2023-07-22T04:13:47.343Z,74.41
2023-07-22T04:14:17.343Z,73.97
2023-07-22T04:14:47.362Z,73.97
2023-07-22T04:15:17.315Z,73.66
2023-07-22T04:15:47.309Z,73.97
2023-07-22T04:16:17.308Z,73.25
2023-07-22T04:16:47.312Z,73.56
2023-07-22T04:17:20.397Z,73.36
2023-07-22T04:18:05.521Z,72.96
2023-07-22T04:18:17.346Z,72.96
2023-07-22T04:18:47.273Z,72.96
2023-07-22T04:19:17.270Z,72.85
2023-07-22T04:19:47.354Z,72.72
2023-07-22T04:20:17.277Z,72.65
2023-07-22T04:20:47.244Z,72.72
2023-07-22T04:21:17.245Z,72.61
2023-07-22T04:21:47.230Z,72.61
2023-07-22T04:22:17.255Z,72.61
2023-07-22T04:22:47.226Z,72.52
2023-07-22T04:23:20.255Z,72.52
2023-07-22T04:24:05.371Z,72.72
2023-07-22T04:24:17.278Z,72.41
2023-07-22T04:24:47.340Z,72.41
2023-07-22T04:25:17.383Z,72.41
2023-07-22T04:25:47.206Z,72.52
2023-07-22T04:26:17.214Z,72.61
2023-07-22T04:26:47.236Z,72.52
2023-07-22T04:27:17.253Z,72.38
2023-07-22T04:27:47.224Z,71.88
2023-07-22T04:28:17.183Z,72.17
2023-07-22T04:28:47.193Z,71.97
2023-07-22T04:29:20.213Z,71.77
2023-07-22T04:30:05.265Z,71.77
2023-07-22T04:30:17.166Z,71.67
2023-07-22T04:30:47.165Z,71.47
2023-07-22T04:31:17.191Z,71.26
2023-07-22T04:31:47.165Z,71.37
2023-07-22T04:32:17.179Z,71.26
2023-07-22T04:32:47.140Z,71.37
2023-07-22T04:33:17.234Z,71.57
2023-07-22T04:33:47.177Z,70.96
2023-07-22T04:34:17.147Z,70.76
2023-07-22T04:34:47.131Z,70.65
2023-07-22T04:35:20.107Z,70.65
2023-07-22T04:36:05.909Z,70.86
2023-07-22T04:36:17.084Z,70.96
2023-07-22T04:36:47.087Z,70.96
2023-07-22T04:37:17.114Z,70.86
2023-07-22T04:37:47.071Z,70.96
2023-07-22T04:38:17.064Z,70.96
2023-07-22T04:38:47.067Z,70.86
2023-07-22T04:39:17.097Z,70.96
2023-07-22T04:39:47.059Z,71.16
2023-07-22T04:40:17.030Z,71.16
2023-07-22T04:40:47.041Z,71.16
2023-07-22T04:41:20.059Z,71.26
2023-07-22T04:42:05.146Z,70.76
2023-07-22T04:42:17.047Z,70.96
2023-07-22T04:42:47.041Z,70.86
2023-07-22T04:43:17.022Z,70.86
2023-07-22T04:43:47.022Z,71.06
2023-07-22T04:44:17.001Z,70.96
2023-07-22T04:44:47.009Z,70.73
2023-07-22T04:45:17.029Z,70.83
2023-07-22T04:45:47.003Z,70.52
2023-07-22T04:46:16.988Z,70.42
2023-07-22T04:46:47.153Z,70.42
2023-07-22T04:47:20.086Z,70.52
2023-07-22T04:48:05.186Z,70.12
2023-07-22T04:48:16.963Z,70.02
2023-07-22T04:48:47.050Z,70.02
2023-07-22T04:49:16.960Z,69.81
2023-07-22T04:49:46.970Z,69.92
2023-07-22T04:50:16.934Z,70.02
2023-07-22T04:50:46.941Z,69.92
2023-07-22T04:51:16.906Z,70.02
2023-07-22T04:51:46.968Z,70.22
2023-07-22T04:52:16.923Z,70.32
2023-07-22T04:52:46.906Z,70.22
2023-07-22T04:53:19.916Z,70.42
2023-07-22T04:54:06.031Z,70.52
2023-07-22T04:54:16.900Z,70.32
2023-07-22T04:54:46.892Z,70.42
2023-07-22T04:55:16.885Z,70.73
2023-07-22T04:55:46.891Z,70.52
2023-07-22T04:56:16.882Z,70.73
2023-07-22T04:56:46.960Z,70.62
2023-07-22T04:57:16.859Z,70.73
2023-07-22T04:57:46.844Z,71.03
2023-07-22T04:58:16.892Z,71.03
2023-07-22T04:58:46.866Z,70.93
2023-07-22T04:59:19.866Z,70.93
2023-07-22T05:00:05.016Z,70.93
2023-07-22T05:00:16.844Z,70.86
2023-07-22T05:00:46.870Z,70.83
2023-07-22T05:01:16.962Z,70.93
2023-07-22T05:01:46.834Z,70.42
2023-07-22T05:02:16.812Z,70.42
2023-07-22T05:02:46.986Z,70.32
2023-07-22T05:03:16.896Z,69.89
2023-07-22T05:03:46.852Z,69.58
2023-07-22T05:04:16.781Z,69.24
2023-07-22T05:04:46.823Z,68.94
2023-07-22T05:05:19.816Z,68.23
2023-07-22T05:06:04.908Z,67.80
2023-07-22T05:06:16.771Z,67.06
2023-07-22T05:06:46.792Z,66.42
2023-07-22T05:07:16.787Z,65.99
2023-07-22T05:07:46.815Z,65.58
2023-07-22T05:08:16.777Z,64.84
2023-07-22T05:08:46.772Z,64.01
2023-07-22T05:09:16.725Z,63.17
2023-07-22T05:09:46.727Z,62.64
2023-07-22T05:10:16.768Z,62.13
2023-07-22T05:10:46.749Z,61.60
2023-07-22T05:11:19.762Z,61.07
2023-07-22T05:12:04.886Z,60.64
2023-07-22T05:12:16.738Z,59.80
2023-07-22T05:12:46.743Z,58.97
2023-07-22T05:13:16.741Z,58.27
2023-07-22T05:13:46.726Z,57.94
2023-07-22T05:14:16.705Z,57.11
2023-07-22T05:14:46.684Z,57.08
2023-07-22T05:15:16.724Z,56.68
2023-07-22T05:15:46.755Z,56.18
2023-07-22T05:16:16.737Z,55.98
2023-07-22T05:16:46.679Z,55.88
2023-07-22T05:17:19.718Z,55.78
2023-07-22T05:18:04.813Z,55.98
2023-07-22T05:18:16.739Z,55.47
2023-07-22T05:18:47.557Z,55.58
2023-07-22T05:19:16.643Z,55.58
2023-07-22T05:19:46.673Z,55.35
2023-07-22T05:20:16.696Z,54.82
2023-07-22T05:20:46.609Z,54.20
2023-07-22T05:21:16.611Z,53.37
2023-07-22T05:21:46.610Z,52.57
2023-07-22T05:22:16.593Z,52.64
2023-07-22T05:22:46.595Z,52.82
2023-07-22T05:23:19.602Z,52.02
2023-07-22T05:24:04.763Z,51.72
2023-07-22T05:24:16.590Z,51.82
2023-07-22T05:24:46.680Z,51.20
2023-07-22T05:25:16.554Z,50.59
2023-07-22T05:25:46.591Z,50.27
2023-07-22T05:26:16.557Z,49.55
2023-07-22T05:26:58.867Z,48.82
2023-07-22T05:27:16.581Z,48.60
2023-07-22T05:27:46.546Z,48.10
2023-07-22T05:28:16.523Z,47.80
2023-07-22T05:28:46.543Z,48.30
2023-07-22T05:29:19.574Z,48.43
2023-07-22T05:30:08.723Z,49.05
2023-07-22T05:30:32.939Z,49.77
2023-07-22T05:30:46.547Z,50.09
2023-07-22T05:31:16.548Z,50.72
2023-07-22T05:31:46.484Z,51.12
2023-07-22T05:32:32.568Z,51.02
2023-07-22T05:32:46.555Z,50.82
2023-07-22T05:33:16.501Z,51.12
2023-07-22T05:33:46.491Z,51.22
2023-07-22T05:34:16.452Z,51.32
2023-07-22T05:34:46.459Z,51.64
2023-07-22T05:35:19.471Z,52.02
2023-07-22T05:36:04.596Z,51.62
2023-07-22T05:36:16.488Z,51.32
2023-07-22T05:36:46.436Z,50.99
2023-07-22T05:37:16.524Z,50.29
2023-07-22T05:37:46.459Z,49.87
2023-07-22T05:38:16.468Z,49.35
2023-07-22T05:38:46.432Z,48.82
2023-07-22T05:39:16.572Z,48.13
2023-07-22T05:39:46.414Z,48.02
2023-07-22T05:40:16.420Z,47.80
2023-07-22T05:40:46.410Z,47.38
2023-07-22T05:41:19.409Z,47.16
2023-07-22T05:42:04.517Z,46.73
2023-07-22T05:42:16.395Z,45.42
2023-07-22T05:42:46.402Z,45.42
2023-07-22T05:43:16.461Z,45.10
2023-07-22T05:43:46.364Z,44.70
2023-07-22T05:44:16.383Z,44.60
2023-07-22T05:44:46.392Z,44.58
2023-07-22T05:45:16.391Z,44.08
2023-07-22T05:45:46.331Z,44.06
2023-07-22T05:46:16.596Z,43.54
2023-07-22T05:46:46.457Z,42.43
2023-07-22T05:47:19.634Z,41.91
2023-07-22T05:48:04.541Z,41.91
2023-07-22T05:48:16.425Z,42.29
2023-07-22T05:48:46.321Z,41.38
2023-07-22T05:49:16.374Z,40.96
2023-07-22T05:49:46.319Z,41.55
2023-07-22T05:50:16.315Z,40.98
2023-07-22T05:50:46.319Z,42.25
2023-07-22T05:51:16.371Z,43.49
2023-07-22T05:51:46.290Z,44.54
2023-07-22T05:52:16.301Z,46.53
2023-07-22T05:52:46.274Z,48.17
2023-07-22T05:53:19.283Z,49.41
2023-07-22T05:54:04.375Z,50.46
2023-07-22T05:54:16.262Z,51.59
2023-07-22T05:54:46.286Z,51.79
2023-07-22T05:55:16.347Z,52.32
2023-07-22T05:55:46.265Z,53.02
2023-07-22T05:56:16.248Z,53.32
2023-07-22T05:56:46.262Z,54.02
2023-07-22T05:57:16.256Z,53.95
2023-07-22T05:57:46.245Z,54.15
2023-07-22T05:58:16.237Z,54.35
2023-07-22T05:58:46.219Z,54.45
2023-07-22T05:59:22.188Z,54.75
2023-07-22T06:00:09.112Z,54.05
2023-07-22T06:00:16.281Z,54.05
2023-07-22T06:00:46.184Z,53.97
2023-07-22T06:01:16.272Z,53.97
2023-07-22T06:01:46.213Z,54.27
2023-07-22T06:02:16.380Z,54.47
2023-07-22T06:02:46.216Z,54.47
2023-07-22T06:03:16.229Z,54.58
2023-07-22T06:03:46.250Z,54.15
2023-07-22T06:04:16.244Z,54.15
2023-07-22T06:04:46.144Z,53.62
2023-07-22T06:05:19.165Z,53.32
2023-07-22T06:06:04.270Z,53.19
2023-07-22T06:06:16.159Z,53.80
2023-07-22T06:06:46.166Z,52.47
2023-07-22T06:07:16.113Z,52.17
2023-07-22T06:07:46.131Z,52.07
2023-07-22T06:08:16.131Z,52.37
2023-07-22T06:08:46.112Z,52.29
2023-07-22T06:09:16.125Z,52.92
2023-07-22T06:09:46.105Z,52.92
2023-07-22T06:10:16.091Z,53.34
2023-07-22T06:10:46.090Z,54.07
2023-07-22T06:11:19.131Z,55.03
2023-07-22T06:12:04.180Z,55.53
2023-07-22T06:12:16.060Z,55.73
2023-07-22T06:12:46.097Z,55.83
2023-07-22T06:13:16.060Z,55.33
2023-07-22T06:13:46.105Z,55.10
2023-07-22T06:14:16.091Z,55.00
2023-07-22T06:14:46.058Z,54.80
2023-07-22T06:15:16.091Z,54.90
2023-07-22T06:15:46.032Z,54.90
2023-07-22T06:16:16.068Z,55.43
2023-07-22T06:16:46.306Z,55.30
2023-07-22T06:17:19.063Z,54.45
2023-07-22T06:18:05.061Z,53.12
2023-07-22T06:18:17.764Z,52.49
2023-07-22T06:18:45.997Z,52.24
2023-07-22T06:19:15.998Z,51.22
2023-07-22T06:19:45.976Z,50.72
2023-07-22T06:20:16.014Z,50.49
2023-07-22T06:20:45.987Z,51.12
2023-07-22T06:21:16.007Z,50.62
2023-07-22T06:21:46.000Z,50.52
2023-07-22T06:22:15.995Z,50.32
2023-07-22T06:22:45.950Z,50.42
2023-07-22T06:23:18.994Z,50.52
2023-07-22T06:24:04.269Z,50.44
2023-07-22T06:24:15.943Z,50.84
2023-07-22T06:24:46.038Z,51.46
2023-07-22T06:25:16.121Z,51.99
2023-07-22T06:25:45.913Z,52.19
2023-07-22T06:26:16.129Z,52.19